createdAt,value
2019-03-19T00:04:29.089Z,82.40
2019-03-19T00:09:34.009Z,82.70
2019-03-19T00:14:39.153Z,85.70
2019-03-19T00:19:45.142Z,86.80
2019-03-19T00:24:49.365Z,85.90
2019-03-19T00:29:54.182Z,85.80
2019-03-19T00:34:59.179Z,86.60
2019-03-19T00:40:04.618Z,86.60
2019-03-19T00:45:10.059Z,85.00
2019-03-19T00:50:15.042Z,87.70
2019-03-19T00:55:19.760Z,86.30
2019-03-19T01:00:24.915Z,87.20
2019-03-19T01:05:29.653Z,88.40
2019-03-19T01:10:34.952Z,86.30
2019-03-19T01:15:39.173Z,86.00
2019-03-19T01:20:42.534Z,85.30
2019-03-19T01:25:55.262Z,85.00
2019-03-19T01:30:52.338Z,83.70
2019-03-19T01:35:55.766Z,81.60
2019-03-19T01:40:59.310Z,83.00
2019-03-19T01:46:04.129Z,82.60
2019-03-19T01:51:09.137Z,81.50
2019-03-19T01:56:13.989Z,80.90
2019-03-19T02:01:18.203Z,81.60
2019-03-19T02:06:22.135Z,80.70
2019-03-19T02:11:26.227Z,81.20
2019-03-19T02:16:30.218Z,82.40
2019-03-19T02:21:34.160Z,81.00
2019-03-19T02:26:38.263Z,80.90
2019-03-19T02:31:42.363Z,80.40
2019-03-19T02:36:46.293Z,79.60
2019-03-19T02:41:50.523Z,80.40
2019-03-19T02:46:55.429Z,79.40
2019-03-19T02:52:00.659Z,81.20
2019-03-19T02:57:05.702Z,80.90
2019-03-19T03:02:10.043Z,80.30
2019-03-19T03:07:15.071Z,80.90
2019-03-19T03:12:19.037Z,81.30
2019-03-19T03:17:24.029Z,81.30
2019-03-19T03:22:28.353Z,79.90
2019-03-19T03:27:32.364Z,79.80
2019-03-19T03:32:37.355Z,79.80
2019-03-19T03:37:42.684Z,79.60
2019-03-19T03:42:47.788Z,79.70
2019-03-19T03:47:52.706Z,79.90
2019-03-19T03:52:58.487Z,79.40
2019-03-19T03:58:03.413Z,78.10
2019-03-19T04:03:08.301Z,79.70
2019-03-19T04:08:13.129Z,80.00
2019-03-19T04:13:18.225Z,80.80
2019-03-19T04:18:23.144Z,80.00
2019-03-19T04:23:28.658Z,79.50
2019-03-19T04:28:33.565Z,78.50
2019-03-19T04:33:38.689Z,78.90
2019-03-19T04:38:43.503Z,78.90
2019-03-19T04:43:48.495Z,78.20
2019-03-19T04:48:53.344Z,79.10
2019-03-19T04:53:58.658Z,78.60
2019-03-19T04:59:03.649Z,78.80
2019-03-19T05:04:08.601Z,80.70
2019-03-19T05:09:25.474Z,79.60
2019-03-19T05:14:30.458Z,80.80
2019-03-19T05:19:35.999Z,81.20
2019-03-19T05:24:42.209Z,82.00
2019-03-19T05:29:47.579Z,79.00
2019-03-19T05:34:52.860Z,80.20
2019-03-19T05:39:58.003Z,80.90
2019-03-19T05:45:04.028Z,78.70
2019-03-19T05:50:09.807Z,78.80
2019-03-19T05:55:14.924Z,78.90
2019-03-19T06:00:21.440Z,80.40
2019-03-19T06:05:26.505Z,79.20
2019-03-19T06:10:31.870Z,79.50
2019-03-19T06:15:37.667Z,80.90
2019-03-19T06:20:42.732Z,81.40
2019-03-19T06:25:48.615Z,83.40
2019-03-19T06:30:53.088Z,83.40
2019-03-19T06:35:57.357Z,85.70
2019-03-19T06:41:01.779Z,86.20
2019-03-19T06:46:06.421Z,86.20
2019-03-19T06:51:10.143Z,85.90
2019-03-19T06:56:14.881Z,89.10
2019-03-19T07:01:18.780Z,87.20
2019-03-19T07:06:24.765Z,89.00
2019-03-19T07:11:27.907Z,91.40
2019-03-19T07:16:32.319Z,90.90
2019-03-19T07:21:36.781Z,89.30
2019-03-19T07:26:40.891Z,90.40
2019-03-19T07:31:46.102Z,90.40
2019-03-19T07:36:50.563Z,92.30
2019-03-19T07:41:55.135Z,95.20
2019-03-19T07:46:59.397Z,90.40
2019-03-19T07:52:03.783Z,89.30
2019-03-19T07:57:08.073Z,87.60
2019-03-19T08:02:13.420Z,84.20
2019-03-19T08:07:18.848Z,82.10
2019-03-19T08:12:23.750Z,83.50
2019-03-19T08:17:28.702Z,83.40
2019-03-19T08:22:33.738Z,84.80
2019-03-19T08:27:39.492Z,81.20
2019-03-19T08:32:45.141Z,79.20
2019-03-19T08:37:51.765Z,74.10
2019-03-19T08:42:58.332Z,73.30
2019-03-19T08:48:04.216Z,73.30
2019-03-19T08:53:09.428Z,72.50
2019-03-19T08:58:14.545Z,73.70
2019-03-19T09:03:19.753Z,69.20
2019-03-19T09:08:25.006Z,67.70
2019-03-19T09:13:30.172Z,66.90
2019-03-19T09:18:35.801Z,65.30
2019-03-19T09:23:41.205Z,62.50
2019-03-19T09:28:47.595Z,65.30
2019-03-19T09:33:52.505Z,54.40
2019-03-19T09:38:57.403Z,53.90
2019-03-19T09:44:02.399Z,50.10
2019-03-19T09:49:07.440Z,52.80
2019-03-19T09:54:12.347Z,46.90
2019-03-19T09:59:26.762Z,46.80
2019-03-19T10:04:25.063Z,50.30
2019-03-19T10:09:30.029Z,40.80
2019-03-19T10:14:37.482Z,36.80
2019-03-19T10:19:42.834Z,42.40
2019-03-19T10:24:48.062Z,40.10
2019-03-19T10:29:53.122Z,37.90
2019-03-19T10:34:57.969Z,39.10
2019-03-19T10:40:03.108Z,37.00
2019-03-19T10:45:09.979Z,37.30
2019-03-19T10:50:17.112Z,36.60
2019-03-19T10:55:22.682Z,38.00
2019-03-19T11:00:29.199Z,35.30
2019-03-19T11:05:33.229Z,37.70
2019-03-19T11:10:37.748Z,36.40
2019-03-19T11:15:41.511Z,38.10
2019-03-19T11:20:46.458Z,34.50
2019-03-19T11:25:54.707Z,38.40
2019-03-19T11:30:57.397Z,34.80
2019-03-19T11:36:02.425Z,36.80
2019-03-19T11:41:07.724Z,32.60
2019-03-19T11:46:12.499Z,35.80
2019-03-19T11:51:17.856Z,33.20
2019-03-19T11:56:22.046Z,32.50
2019-03-19T12:01:26.733Z,32.80
2019-03-19T12:06:31.281Z,32.90
2019-03-19T12:11:36.162Z,35.20
2019-03-19T12:16:40.906Z,32.20
2019-03-19T12:21:45.670Z,29.20
2019-03-19T12:26:50.118Z,32.30
2019-03-19T12:31:54.564Z,30.80
2019-03-19T12:36:59.408Z,33.00
2019-03-19T12:42:04.890Z,32.80
2019-03-19T12:47:10.355Z,31.80
2019-03-19T12:52:15.802Z,31.00
2019-03-19T12:57:21.006Z,31.60
2019-03-19T13:02:26.961Z,31.90
2019-03-19T13:07:32.289Z,30.10
2019-03-19T13:12:37.778Z,29.80
2019-03-19T13:17:43.476Z,29.00
2019-03-19T13:22:48.729Z,30.70
2019-03-19T13:27:54.119Z,30.60
2019-03-19T13:32:59.480Z,30.40
2019-03-19T13:38:04.562Z,29.70
2019-03-19T13:43:09.962Z,31.20
2019-03-19T13:48:14.768Z,29.20
2019-03-19T13:53:19.853Z,30.10
2019-03-19T13:58:27.123Z,29.30
2019-03-19T14:03:32.987Z,29.00
2019-03-19T14:08:38.463Z,29.90
2019-03-19T14:13:43.893Z,29.00
2019-03-19T14:18:48.910Z,29.50
2019-03-19T14:23:53.947Z,30.50
2019-03-19T14:29:00.041Z,28.90
2019-03-19T14:34:05.402Z,30.80
2019-03-19T14:39:10.034Z,29.10
2019-03-19T14:44:15.550Z,28.70
2019-03-19T14:49:20.641Z,29.30
2019-03-19T14:54:26.478Z,28.50
2019-03-19T14:59:32.604Z,29.60
2019-03-19T15:04:38.973Z,30.30
2019-03-19T15:09:43.944Z,29.40
2019-03-19T15:14:49.573Z,30.70
2019-03-19T15:19:55.027Z,28.40
2019-03-19T15:25:00.366Z,31.50
2019-03-19T15:30:07.071Z,28.20
2019-03-19T15:35:12.620Z,28.10
2019-03-19T15:40:18.051Z,27.80
2019-03-19T15:45:24.427Z,28.60
2019-03-19T15:50:31.236Z,27.10
2019-03-19T15:55:53.987Z,28.70
2019-03-19T16:00:59.058Z,29.40
2019-03-19T16:06:04.011Z,27.80
2019-03-19T16:11:08.890Z,28.60
2019-03-19T16:16:13.745Z,27.90
2019-03-19T16:21:19.078Z,27.60
2019-03-19T16:26:25.259Z,28.80
2019-03-19T16:31:30.415Z,27.20
2019-03-19T16:36:35.023Z,26.80
2019-03-19T16:41:39.770Z,27.10
2019-03-19T16:46:45.005Z,28.70
2019-03-19T16:51:50.543Z,28.30
2019-03-19T16:56:55.730Z,28.00
2019-03-19T17:02:01.637Z,30.90
2019-03-19T17:07:05.440Z,32.40
2019-03-19T17:12:09.739Z,32.70
2019-03-19T17:17:14.077Z,34.80
2019-03-19T17:22:18.209Z,35.80
2019-03-19T17:27:22.831Z,35.50
2019-03-19T17:32:27.115Z,38.10
2019-03-19T17:37:32.247Z,38.60
2019-03-19T17:42:38.194Z,37.80
2019-03-19T17:47:44.164Z,38.50
2019-03-19T17:52:50.393Z,39.30
2019-03-19T17:57:55.749Z,41.60
2019-03-19T18:03:00.643Z,44.90
2019-03-19T18:08:05.767Z,44.40
2019-03-19T18:13:10.987Z,47.20
2019-03-19T18:18:16.237Z,47.20
2019-03-19T18:23:21.842Z,45.20
2019-03-19T18:28:27.685Z,42.30
2019-03-19T18:33:32.734Z,43.10
2019-03-19T18:38:37.461Z,43.90
2019-03-19T18:43:42.652Z,46.20
2019-03-19T18:48:48.530Z,45.70
2019-03-19T18:53:55.065Z,46.20
2019-03-19T18:59:00.560Z,46.00
2019-03-19T19:04:05.644Z,47.10
2019-03-19T19:09:10.787Z,47.20
2019-03-19T19:14:15.812Z,46.80
2019-03-19T19:19:21.356Z,49.40
2019-03-19T19:24:26.548Z,48.30
2019-03-19T19:29:32.159Z,49.00
2019-03-19T19:34:37.444Z,47.40
2019-03-19T19:39:42.728Z,49.10
2019-03-19T19:44:47.818Z,49.80
2019-03-19T19:49:53.406Z,51.20
2019-03-19T19:54:58.907Z,52.40
2019-03-19T20:00:05.063Z,51.70
2019-03-19T20:05:10.241Z,49.80
2019-03-19T20:10:16.678Z,48.20
2019-03-19T20:15:22.330Z,48.10
2019-03-19T20:20:28.042Z,47.90
2019-03-19T20:25:34.015Z,47.20
2019-03-19T20:30:39.391Z,48.30
2019-03-19T20:35:44.155Z,49.00
2019-03-19T20:40:49.049Z,49.90
2019-03-19T20:45:54.285Z,50.70
2019-03-19T20:51:00.600Z,51.30
2019-03-19T20:56:05.175Z,51.50
2019-03-19T21:01:09.776Z,54.10
2019-03-19T21:06:14.269Z,54.20
2019-03-19T21:11:19.038Z,53.90
2019-03-19T21:16:23.547Z,54.60
2019-03-19T21:21:27.944Z,55.90
2019-03-19T21:26:31.878Z,56.70
2019-03-19T21:31:36.107Z,56.40
2019-03-19T21:36:40.357Z,57.00
2019-03-19T21:41:45.815Z,56.70
2019-03-19T21:46:51.025Z,57.90
2019-03-19T21:51:57.650Z,59.10
2019-03-19T21:57:03.018Z,58.00
2019-03-19T22:02:07.452Z,57.70
2019-03-19T22:07:12.014Z,58.60
2019-03-19T22:12:16.527Z,58.50
2019-03-19T22:17:20.946Z,59.80
2019-03-19T22:22:25.359Z,59.10
2019-03-19T22:27:29.900Z,59.80
2019-03-19T22:32:35.070Z,60.00
2019-03-19T22:37:41.379Z,61.20
2019-03-19T22:42:46.913Z,61.20
2019-03-19T22:47:51.849Z,62.80
2019-03-19T22:52:57.517Z,62.70
2019-03-19T22:58:02.532Z,62.90
2019-03-19T23:03:08.087Z,62.50
2019-03-19T23:08:13.263Z,62.20
2019-03-19T23:13:18.531Z,62.90
2019-03-19T23:18:23.277Z,63.20
2019-03-19T23:23:28.437Z,62.80
2019-03-19T23:28:33.615Z,63.30
2019-03-19T23:33:38.903Z,63.30
2019-03-19T23:38:44.292Z,63.40
2019-03-19T23:43:49.937Z,63.20
2019-03-19T23:48:54.967Z,63.70
2019-03-19T23:54:01.073Z,63.50
2019-03-19T23:59:06.411Z,63.40
